Cape Fear, North Carolina
Current Conditions -  °F | °C
As of 2:53 PM on Monday 24 Nov 2014 (Local Time) from KILM Reporting Station
Overcast Overcast  
Wind Chill: 72°   Ceiling: 900
Heat Index: 72°   Visibility: 8mi
Dew Point: 69°   Wind: 12mph
Humidity: 91%   Direction: 220°SW
Pressure: 29.86"   Gusts: NA
Location:  34.2436°N, 77.9363°W
Report Text: KILM 241953Z 22010KT 8SM OVC009 22/21 A2986 RMK AO2 SLP111 T02220206
Loading
Personal Weather Stations






























Interactive Weather Map New forecast layout! Learn more

10-Day Weather Forecast

Advertisements
Track Severe Weather on mobile